Time;durP1;ratioP1;P1;durP2;ratioP2;P2;SDS_P1;SDS_P2;PMS_P1;PMS_P2;Temp;Humidity;BMP_temperature;BMP_pressure;BME280_temperature;BME280_humidity;BME280_pressure;Samples;Min_cycle;Max_cycle;Signal;HPM_P1;HPM_P2
2021/04/26 00:00:29;;;;;;;10.25;8.10;;;;;;;3.87;49.48;99134.50;1735294;82;21056;-61
2021/04/26 00:02:58;;;;;;;9.95;7.15;;;;;;;3.85;49.56;99135.97;1735404;82;21151;-61
2021/04/26 00:05:28;;;;;;;8.03;6.22;;;;;;;3.84;49.45;99133.45;1731085;82;21166;-61
2021/04/26 00:07:56;;;;;;;8.65;7.10;;;;;;;3.84;49.08;99141.34;1734267;82;22094;-61
2021/04/26 00:10:24;;;;;;;9.83;6.92;;;;;;;3.83;49.14;99134.44;1734044;82;21469;-60
2021/04/26 00:12:51;;;;;;;8.33;6.30;;;;;;;3.80;49.48;99128.97;1719940;83;21111;-60
2021/04/26 00:15:27;;;;;;;8.40;6.50;;;;;;;3.79;49.67;99132.55;1726031;82;21167;-61
2021/04/26 00:17:55;;;;;;;8.20;6.42;;;;;;;3.73;51.46;99135.23;1730127;81;21163;-62
2021/04/26 00:20:27;;;;;;;8.65;6.33;;;;;;;3.56;54.32;99138.53;1730551;82;21369;-61
2021/04/26 00:22:56;;;;;;;8.75;5.80;;;;;;;3.37;54.87;99138.47;1730834;82;21163;-61
2021/04/26 00:25:23;;;;;;;6.90;5.78;;;;;;;3.24;54.69;99139.17;1725815;82;21131;-61
2021/04/26 00:27:51;;;;;;;5.83;4.70;;;;;;;3.16;54.56;99135.05;1728884;82;21023;-61
2021/04/26 00:30:23;;;;;;;6.92;5.67;;;;;;;3.09;54.59;99134.77;1729776;82;21202;-61
2021/04/26 00:32:50;;;;;;;8.25;6.12;;;;;;;3.05;54.36;99141.73;1730859;82;21559;-61
2021/04/26 00:35:20;;;;;;;9.40;7.00;;;;;;;3.02;53.90;99138.05;1730793;82;21586;-61
2021/04/26 00:37:49;;;;;;;8.50;5.45;;;;;;;3.00;54.27;99139.48;1725975;82;21505;-61
2021/04/26 00:40:18;;;;;;;7.15;5.30;;;;;;;2.99;53.91;99135.20;1724862;82;21167;-61
2021/04/26 00:42:47;;;;;;;7.62;4.55;;;;;;;2.95;56.27;99133.78;1730758;82;21004;-61
2021/04/26 00:45:35;;;;;;;5.95;3.90;;;;;;;2.87;56.66;99141.48;1730795;82;21482;-61
2021/04/26 00:48:05;;;;;;;6.35;4.03;;;;;;;2.82;55.82;99137.58;1687240;84;21137;-61
2021/04/26 00:50:32;;;;;;;4.83;3.12;;;;;;;2.74;54.96;99140.86;1680783;84;21077;-61
2021/04/26 00:53:03;;;;;;;5.05;3.35;;;;;;;2.68;54.52;99142.70;1680632;84;21038;-61
2021/04/26 00:55:35;;;;;;;5.83;3.65;;;;;;;2.62;54.09;99141.89;1680735;84;21158;-61
2021/04/26 00:58:02;;;;;;;6.58;3.35;;;;;;;2.58;54.29;99143.60;1682708;84;21628;-61
2021/04/26 01:00:30;;;;;;;7.15;3.65;;;;;;;2.54;54.19;99147.42;1676299;84;21119;-62
2021/04/26 01:02:57;;;;;;;4.90;3.52;;;;;;;2.49;54.42;99152.59;1678830;84;21210;-61
2021/04/26 01:05:28;;;;;;;4.50;3.05;;;;;;;2.46;54.31;99148.91;1681173;84;21050;-61
2021/04/26 01:07:56;;;;;;;6.20;3.45;;;;;;;2.42;54.08;99144.85;1684150;84;21209;-61
2021/04/26 01:10:28;;;;;;;3.92;2.92;;;;;;;2.36;53.89;99145.38;1679160;84;21411;-62
2021/04/26 01:13:22;;;;;;;3.98;3.08;;;;;;;2.32;53.75;99145.77;1655271;84;21153;-62
2021/04/26 01:16:24;;;;;;;7.78;3.98;;;;;;;2.27;53.90;99142.19;1682248;84;21171;-61
2021/04/26 01:19:07;;;;;;;6.22;3.40;;;;;;;2.22;55.65;99143.05;1663627;84;21624;-61
2021/04/26 01:22:08;;;;;;;6.17;3.20;;;;;;;2.09;56.91;99145.48;1680693;84;21089;-62
2021/04/26 01:25:12;;;;;;;4.05;2.83;;;;;;;1.98;57.04;99144.23;1680694;84;21433;-60
2021/04/26 01:27:46;;;;;;;4.60;3.20;;;;;;;1.88;57.29;99142.34;1682314;84;21201;-61
2021/04/26 01:30:18;;;;;;;4.47;3.25;;;;;;;1.82;57.21;99144.63;1679107;83;21105;-61
2021/04/26 01:33:02;;;;;;;6.17;3.62;;;;;;;1.76;57.29;99129.38;1682495;83;21229;-63
2021/04/26 01:35:31;;;;;;;5.30;3.40;;;;;;;1.70;57.35;99133.33;1655441;85;21177;-60
2021/04/26 01:38:06;;;;;;;5.08;3.37;;;;;;;1.65;57.84;99135.48;1636722;85;21430;-61
2021/04/26 01:40:35;;;;;;;4.58;3.33;;;;;;;1.60;57.80;99132.40;1680824;84;21055;-61
2021/04/26 01:43:03;;;;;;;5.30;3.90;;;;;;;1.56;57.56;99131.46;1638006;85;21018;-61
2021/04/26 01:45:31;;;;;;;5.83;3.92;;;;;;;1.53;57.66;99127.77;1680670;84;21023;-61
2021/04/26 01:47:58;;;;;;;5.30;3.98;;;;;;;1.53;57.59;99128.61;1681134;84;21160;-61
2021/04/26 01:50:28;;;;;;;5.45;4.03;;;;;;;1.56;57.62;99120.98;1684332;84;21621;-61
2021/04/26 01:52:55;;;;;;;6.47;4.12;;;;;;;1.59;57.58;99121.54;1679754;84;21631;-60
2021/04/26 01:55:23;;;;;;;7.37;4.78;;;;;;;1.64;57.70;99117.27;1671140;84;21225;-61
2021/04/26 01:57:52;;;;;;;6.37;4.22;;;;;;;1.67;57.98;99116.99;1672985;84;21154;-61
2021/04/26 02:00:29;;;;;;;8.35;5.45;;;;;;;1.67;58.65;99119.14;1671124;84;21145;-59
2021/04/26 02:03:02;;;;;;;6.05;4.47;;;;;;;1.60;59.76;99119.76;1675742;84;21263;-60
2021/04/26 02:05:32;;;;;;;6.37;4.17;;;;;;;1.50;59.07;99120.14;1670073;84;21560;-63
2021/04/26 02:08:01;;;;;;;6.90;4.65;;;;;;;1.49;58.62;99117.16;1673129;84;21193;-63
2021/04/26 02:10:33;;;;;;;12.15;4.70;;;;;;;1.53;58.32;99115.97;1676939;84;21081;-63
2021/04/26 02:13:02;;;;;;;7.85;5.03;;;;;;;1.54;59.45;99118.45;1676462;84;21140;-62
2021/04/26 02:15:29;;;;;;;6.58;4.05;;;;;;;1.49;60.69;99114.53;1679139;84;22459;-63
2021/04/26 02:18:00;;;;;;;8.70;4.45;;;;;;;1.41;61.26;99119.08;1676562;84;21138;-62
2021/04/26 02:20:28;;;;;;;5.35;3.90;;;;;;;1.30;62.18;99116.49;1679813;84;21124;-63
2021/04/26 02:22:56;;;;;;;7.85;4.83;;;;;;;1.20;63.24;99116.83;1675051;84;21141;-63
2021/04/26 02:25:24;;;;;;;5.40;3.87;;;;;;;1.13;63.90;99111.25;1680121;84;21103;-63
2021/04/26 02:27:51;;;;;;;7.40;4.30;;;;;;;1.12;64.32;99114.00;1676309;84;21209;-63
2021/04/26 02:30:20;;;;;;;6.33;3.85;;;;;;;1.11;64.62;99114.95;1687058;84;21190;-63
2021/04/26 02:33:01;;;;;;;7.15;4.10;;;;;;;1.09;64.65;99117.70;1673339;84;21169;-62
2021/04/26 02:35:44;;;;;;;7.87;4.28;;;;;;;1.07;64.52;99119.58;1679453;84;20961;-65
2021/04/26 02:38:15;;;;;;;6.20;4.92;;;;;;;1.04;64.33;99121.12;1675373;84;21056;-63
2021/04/26 02:40:47;;;;;;;7.15;4.67;;;;;;;1.07;63.78;99118.77;1681439;84;21396;-64
2021/04/26 02:43:15;;;;;;;8.40;4.40;;;;;;;1.08;63.04;99123.87;1627801;88;20964;-66
2021/04/26 02:45:52;;;;;;;8.95;4.92;;;;;;;1.10;62.44;99123.75;1671172;84;21043;-63
2021/04/26 02:48:20;;;;;;;5.85;4.28;;;;;;;1.12;62.41;99118.74;1671107;84;21631;-64
2021/04/26 02:50:54;;;;;;;8.33;3.92;;;;;;;1.17;62.07;99126.27;1672675;84;21146;-64
2021/04/26 02:53:31;;;;;;;7.20;4.80;;;;;;;1.17;62.66;99122.34;1648077;85;21365;-62
2021/04/26 02:56:06;;;;;;;7.65;4.75;;;;;;;1.14;62.58;99127.34;1646165;84;21596;-63
2021/04/26 02:58:36;;;;;;;7.50;5.60;;;;;;;1.15;62.33;99127.68;1671190;84;21162;-63
2021/04/26 03:01:06;;;;;;;6.85;5.12;;;;;;;1.20;61.85;99120.77;1672125;84;21135;-63
2021/04/26 03:03:46;;;;;;;9.50;5.47;;;;;;;1.25;61.41;99114.71;1757812;79;28747;-62
2021/04/26 03:06:15;;;;;;;11.25;7.05;;;;;;;1.22;61.14;99115.79;1736665;82;21055;-62
2021/04/26 03:09:01;;;;;;;7.08;5.08;;;;;;;1.25;61.28;99114.20;1726345;82;22015;-63
2021/04/26 03:11:29;;;;;;;7.75;5.00;;;;;;;1.29;61.13;99116.13;1736948;82;21006;-63
2021/04/26 03:13:59;;;;;;;8.73;5.10;;;;;;;1.37;61.59;99117.67;1717814;82;20961;-63
2021/04/26 03:16:26;;;;;;;9.53;7.58;;;;;;;1.49;62.35;99114.06;1725400;82;21070;-62
2021/04/26 03:18:54;;;;;;;8.98;7.40;;;;;;;1.54;62.04;99112.41;1704234;82;21076;-62
2021/04/26 03:21:22;;;;;;;7.45;5.67;;;;;;;1.52;62.51;99109.05;1704983;82;21380;-62
2021/04/26 03:23:51;;;;;;;8.05;5.62;;;;;;;1.49;63.11;99117.16;1718739;82;21555;-62
2021/04/26 03:26:19;;;;;;;6.42;4.72;;;;;;;1.41;63.69;99117.77;1719336;82;21001;-62
2021/04/26 03:28:47;;;;;;;8.28;4.75;;;;;;;1.38;63.53;99118.50;1715757;82;21119;-59
2021/04/26 03:31:14;;;;;;;6.35;4.25;;;;;;;1.41;63.34;99123.51;1708182;82;21087;-61
2021/04/26 03:33:49;;;;;;;7.80;3.90;;;;;;;1.46;63.41;99122.16;1711357;82;21353;-63
2021/04/26 03:36:18;;;;;;;7.10;3.98;;;;;;;1.54;62.83;99124.20;1726387;82;20994;-63
2021/04/26 03:38:49;;;;;;;6.60;4.05;;;;;;;1.68;62.37;99124.75;1689875;82;21235;-62
2021/04/26 03:41:17;;;;;;;5.90;3.90;;;;;;;1.84;61.89;99126.50;1711289;82;20989;-61
2021/04/26 03:43:45;;;;;;;5.42;3.72;;;;;;;2.04;61.58;99129.28;1662595;85;21150;-61
2021/04/26 03:46:14;;;;;;;5.92;4.28;;;;;;;2.29;61.13;99126.33;1674825;84;22148;-59
2021/04/26 03:49:00;;;;;;;7.90;4.40;;;;;;;2.57;60.25;99134.05;1675082;84;21171;-64
2021/04/26 03:51:33;;;;;;;6.03;3.92;;;;;;;2.84;59.49;99131.73;1676791;84;21188;-65
2021/04/26 03:54:21;;;;;;;5.05;3.15;;;;;;;3.11;58.45;99129.36;1682583;84;21053;-62
2021/04/26 03:56:49;;;;;;;7.12;3.65;;;;;;;3.35;57.38;99125.10;1676360;84;21136;-61
2021/04/26 03:59:17;;;;;;;4.67;3.60;;;;;;;3.57;57.00;99134.92;1695010;84;23626;-65
2021/04/26 04:01:45;;;;;;;6.10;3.58;;;;;;;3.81;56.46;99132.44;1682157;83;21188;-64
2021/04/26 04:04:14;;;;;;;4.55;3.47;;;;;;;4.05;55.85;99140.75;1657797;84;21188;-63
2021/04/26 04:07:04;;;;;;;5.10;3.80;;;;;;;4.40;55.04;99132.31;1824018;78;23062;-62
2021/04/26 04:09:42;;;;;;;5.87;3.92;;;;;;;4.56;54.44;99138.69;1656618;83;20970;-67
2021/04/26 04:12:24;;;;;;;6.35;3.83;;;;;;;4.76;54.07;99143.44;1820031;78;22675;-66
2021/04/26 04:14:56;;;;;;;9.10;4.17;;;;;;;4.89;53.73;99138.69;1782461;79;21004;-65
2021/04/26 04:17:24;;;;;;;6.62;3.70;;;;;;;5.13;53.22;99140.36;1780028;79;21393;-67
2021/04/26 04:19:53;;;;;;;5.97;4.17;;;;;;;5.35;52.37;99137.34;1713624;81;21004;-68
2021/04/26 04:22:21;;;;;;;5.95;3.83;;;;;;;5.45;52.07;99130.69;1761848;80;21033;-67
2021/04/26 04:24:51;;;;;;;5.05;3.90;;;;;;;5.50;51.64;99136.39;1779186;78;21014;-64
2021/04/26 04:27:18;;;;;;;5.37;4.08;;;;;;;5.45;51.52;99133.33;1751997;80;21142;-67
2021/04/26 04:29:46;;;;;;;4.72;3.52;;;;;;;5.39;51.46;99134.77;1752538;79;21140;-68
2021/04/26 04:32:32;;;;;;;5.12;3.70;;;;;;;5.39;51.65;99134.77;1753768;81;21012;-65
2021/04/26 04:35:19;;;;;;;7.78;4.15;;;;;;;5.55;51.46;99138.91;1755920;79;21060;-67
2021/04/26 04:37:48;;;;;;;4.80;3.55;;;;;;;5.83;50.79;99134.46;1734566;81;21149;-67
2021/04/26 04:40:27;;;;;;;3.22;2.83;;;;;;;6.07;50.80;99138.72;1708506;83;21171;-64
2021/04/26 04:42:59;;;;;;;7.30;4.35;;;;;;;6.44;50.22;99127.97;1738756;81;21582;-65
2021/04/26 04:45:30;;;;;;;5.47;4.17;;;;;;;6.69;49.45;99125.88;1762683;81;21069;-64
2021/04/26 04:48:16;;;;;;;4.80;3.70;;;;;;;6.95;49.24;99130.33;1754425;81;21029;-65
2021/04/26 04:50:46;;;;;;;4.35;2.83;;;;;;;7.20;48.57;99123.70;1735280;81;21584;-66
2021/04/26 04:53:13;;;;;;;3.83;3.02;;;;;;;7.51;48.14;99126.66;1758831;80;21145;-64
2021/04/26 04:55:41;;;;;;;4.75;2.87;;;;;;;7.80;47.34;99128.91;1762147;80;23672;-65
2021/04/26 04:58:09;;;;;;;5.37;2.75;;;;;;;8.08;46.57;99131.66;1748212;80;21148;-65
2021/04/26 05:00:36;;;;;;;3.80;2.83;;;;;;;8.35;46.13;99138.48;1725347;82;21402;-57
2021/04/26 05:03:07;;;;;;;6.17;2.95;;;;;;;8.65;45.34;99131.23;1716635;80;21022;-66
2021/04/26 05:05:54;;;;;;;3.67;3.12;;;;;;;8.92;45.07;99134.00;1730013;80;21171;-65
2021/04/26 05:08:26;;;;;;;4.30;3.55;;;;;;;9.22;44.72;99139.44;1718841;80;21434;-67
2021/04/26 05:11:12;;;;;;;4.15;3.25;;;;;;;9.51;44.10;99138.85;1717866;81;20969;-69
2021/04/26 05:14:03;;;;;;;4.15;3.20;;;;;;;9.81;43.13;99135.39;1809924;78;22725;-67
2021/04/26 05:16:32;;;;;;;5.03;3.10;;;;;;;9.95;42.75;99135.16;1786834;80;21107;-66
2021/04/26 05:19:00;;;;;;;4.30;3.22;;;;;;;10.14;42.48;99137.91;1746465;81;22208;-67
2021/04/26 05:21:28;;;;;;;5.25;2.87;;;;;;;10.36;41.92;99128.61;1662177;82;21081;-67
2021/04/26 05:23:56;;;;;;;4.30;3.30;;;;;;;10.51;41.33;99133.97;1684675;84;20961;-67
2021/04/26 05:26:27;;;;;;;5.47;3.62;;;;;;;10.57;40.82;99137.27;1692378;83;20962;-66
2021/04/26 05:28:55;;;;;;;3.98;3.58;;;;;;;10.66;41.14;99138.03;1680145;83;21042;-65
2021/04/26 05:31:23;;;;;;;5.47;3.50;;;;;;;10.85;40.75;99133.02;1726943;82;21448;-67
2021/04/26 05:33:51;;;;;;;4.00;3.22;;;;;;;11.05;40.22;99132.02;1721168;81;21132;-67
2021/04/26 05:36:22;;;;;;;3.42;3.12;;;;;;;11.29;40.36;99133.61;1735534;82;21585;-66
2021/04/26 05:38:54;;;;;;;6.05;3.37;;;;;;;11.49;39.60;99132.04;1722597;81;20945;-66
2021/04/26 05:41:23;;;;;;;4.17;3.67;;;;;;;11.62;39.29;99132.22;1730053;82;21144;-66
2021/04/26 05:43:52;;;;;;;7.72;6.50;;;;;;;11.84;38.67;99129.95;1720973;82;22337;-67
2021/04/26 05:46:21;;;;;;;6.17;5.33;;;;;;;11.94;38.33;99134.48;1727962;83;21147;-66
2021/04/26 05:48:49;;;;;;;3.83;3.47;;;;;;;12.03;38.26;99132.54;1720969;82;21071;-66
2021/04/26 05:51:17;;;;;;;5.45;3.77;;;;;;;12.12;38.61;99132.23;1705984;83;20943;-66
2021/04/26 05:53:44;;;;;;;7.03;3.00;;;;;;;12.30;38.06;99135.83;1719916;83;21634;-67
2021/04/26 05:56:12;;;;;;;2.40;2.10;;;;;;;12.38;37.55;99136.52;1738209;82;21474;-66
2021/04/26 05:58:39;;;;;;;2.47;2.10;;;;;;;12.32;37.68;99137.80;1738163;82;21001;-66
2021/04/26 06:01:06;;;;;;;3.65;2.05;;;;;;;12.38;37.76;99140.51;1738207;82;20941;-65
2021/04/26 06:03:34;;;;;;;2.30;1.90;;;;;;;12.61;37.73;99145.69;1738196;82;21135;-64
2021/04/26 06:06:03;;;;;;;2.37;1.77;;;;;;;12.92;37.20;99135.48;1723971;82;21187;-65
2021/04/26 06:08:30;;;;;;;3.85;2.05;;;;;;;13.00;36.41;99141.19;1718789;81;21642;-66
2021/04/26 06:11:00;;;;;;;2.85;1.90;;;;;;;12.97;35.73;99133.05;1710185;82;21179;-68
2021/04/26 06:13:28;;;;;;;5.45;2.90;;;;;;;12.88;36.37;99137.38;1743688;81;21212;-68
2021/04/26 06:15:55;;;;;;;8.50;5.60;;;;;;;12.95;36.16;99143.11;1754146;80;21567;-66
2021/04/26 06:18:24;;;;;;;4.17;3.10;;;;;;;12.93;36.47;99145.66;1698623;82;21657;-66
2021/04/26 06:20:56;;;;;;;3.52;2.20;;;;;;;13.05;36.06;99140.59;1763743;80;21200;-65
2021/04/26 06:23:23;;;;;;;5.17;3.20;;;;;;;13.16;35.44;99134.77;1761779;80;20934;-67
2021/04/26 06:25:51;;;;;;;4.40;2.67;;;;;;;13.25;35.36;99145.09;1774391;80;21112;-65
2021/04/26 06:28:18;;;;;;;5.35;3.30;;;;;;;13.38;34.97;99137.16;1707547;82;21038;-66
2021/04/26 06:30:46;;;;;;;9.30;3.92;;;;;;;13.54;35.17;99138.19;1714561;83;22387;-66
2021/04/26 06:33:17;;;;;;;9.83;3.65;;;;;;;13.84;35.51;99138.76;1714665;83;22614;-66
2021/04/26 06:35:46;;;;;;;6.37;2.00;;;;;;;14.25;34.26;99140.03;1703140;82;20958;-66
2021/04/26 06:38:14;;;;;;;6.85;2.20;;;;;;;14.44;33.37;99139.80;1768292;80;20938;-66
2021/04/26 06:40:42;;;;;;;7.00;2.60;;;;;;;14.49;32.81;99140.84;1766616;80;21018;-67
2021/04/26 06:43:10;;;;;;;4.08;2.10;;;;;;;14.44;32.56;99150.00;1708051;82;21015;-65
2021/04/26 06:45:39;;;;;;;2.37;2.17;;;;;;;14.40;32.76;99147.91;1774478;80;21370;-65
2021/04/26 06:48:08;;;;;;;2.12;1.90;;;;;;;14.63;32.79;99142.49;1737427;82;20973;-66
2021/04/26 06:50:36;;;;;;;4.87;1.77;;;;;;;14.94;32.59;99145.91;1774573;80;20930;-66
2021/04/26 06:53:04;;;;;;;2.75;1.70;;;;;;;15.27;31.67;99141.88;1772270;80;21089;-66
2021/04/26 06:55:31;;;;;;;1.80;1.45;;;;;;;15.40;31.19;99141.35;1769841;80;21014;-66
2021/04/26 06:57:59;;;;;;;2.75;1.50;;;;;;;15.59;30.69;99142.89;1727020;82;21445;-66
2021/04/26 07:00:27;;;;;;;5.47;2.72;;;;;;;15.81;30.59;99140.23;1751927;80;20954;-66
2021/04/26 07:02:55;;;;;;;6.50;3.75;;;;;;;15.88;29.90;99139.67;1707934;82;20933;-65
2021/04/26 07:05:26;;;;;;;7.10;4.90;;;;;;;15.96;30.00;99135.42;1770333;80;20955;-65
2021/04/26 07:07:55;;;;;;;10.10;6.12;;;;;;;16.10;29.53;99141.05;1771768;80;20946;-65
2021/04/26 07:10:22;;;;;;;7.17;4.47;;;;;;;15.96;29.52;99144.81;1770702;80;21379;-64
2021/04/26 07:12:50;;;;;;;6.12;4.92;;;;;;;16.02;29.29;99143.97;1770713;80;20974;-62
2021/04/26 07:15:19;;;;;;;6.00;4.05;;;;;;;16.18;28.65;99144.00;1715453;81;21559;-63
2021/04/26 07:17:46;;;;;;;6.45;2.80;;;;;;;16.24;28.36;99144.49;1711451;83;20955;-63
2021/04/26 07:20:14;;;;;;;5.83;3.00;;;;;;;16.40;28.51;99138.63;1731100;82;21149;-62
2021/04/26 07:22:42;;;;;;;2.27;1.50;;;;;;;16.44;27.65;99147.37;1760882;80;21154;-67
2021/04/26 07:25:13;;;;;;;1.67;1.10;;;;;;;16.56;27.51;99149.69;1764488;80;21048;-60
2021/04/26 07:27:44;;;;;;;1.62;1.12;;;;;;;16.66;26.54;99149.20;1758508;80;21483;-63
2021/04/26 07:30:13;;;;;;;5.67;2.22;;;;;;;16.62;26.77;99140.78;1737235;82;21175;-64
2021/04/26 07:32:41;;;;;;;5.30;2.55;;;;;;;16.48;26.69;99133.80;1770428;80;21144;-64
2021/04/26 07:35:12;;;;;;;3.22;2.45;;;;;;;16.43;27.12;99138.17;1767733;80;22267;-64
2021/04/26 07:37:40;;;;;;;4.55;2.58;;;;;;;16.60;27.04;99146.06;1765194;80;20990;-65
2021/04/26 07:40:12;;;;;;;5.87;2.42;;;;;;;16.56;26.96;99138.95;1765217;80;20966;-63
2021/04/26 07:42:41;;;;;;;3.27;2.08;;;;;;;16.48;27.06;99145.05;1707928;82;21620;-64
2021/04/26 07:47:54;;;;;;;2.45;1.55;;;;;;;16.59;26.50;99145.23;1713628;83;22191;-65
2021/04/26 07:50:22;;;;;;;1.35;1.22;;;;;;;16.82;26.94;99143.30;1714296;83;20983;-64
2021/04/26 07:52:52;;;;;;;2.58;1.27;;;;;;;16.87;26.42;99130.58;1714398;83;21062;-64
2021/04/26 07:55:19;;;;;;;1.55;1.02;;;;;;;16.65;26.50;99138.17;1714319;83;21152;-66
2021/04/26 07:57:48;;;;;;;1.27;1.12;;;;;;;16.41;26.51;99134.89;1714271;83;21201;-65
2021/04/26 08:00:18;;;;;;;1.52;1.17;;;;;;;16.17;26.23;99127.58;1714353;83;21208;-65
2021/04/26 08:02:46;;;;;;;2.77;1.17;;;;;;;15.85;26.51;99135.56;1714220;83;21157;-64
2021/04/26 08:05:36;;;;;;;4.10;1.05;;;;;;;15.70;27.22;99129.64;1714157;83;21213;-65
2021/04/26 08:08:04;;;;;;;1.70;1.27;;;;;;;15.36;27.30;99136.59;1685457;83;21649;-64
2021/04/26 08:10:31;;;;;;;1.77;1.40;;;;;;;14.78;28.00;99151.69;1685519;83;21214;-64
2021/04/26 08:12:59;;;;;;;5.50;1.65;;;;;;;14.42;28.83;99160.56;1685390;83;21299;-64
2021/04/26 08:15:27;;;;;;;2.02;1.20;;;;;;;13.93;30.55;99162.12;1685525;85;21711;-65
2021/04/26 08:17:55;;;;;;;2.10;1.30;;;;;;;13.31;31.62;99173.70;1685493;83;21046;-62
2021/04/26 08:20:22;;;;;;;1.25;1.00;;;;;;;12.65;32.74;99175.46;1685474;83;21182;-63
2021/04/26 08:22:54;;;;;;;4.72;0.98;;;;;;;12.03;33.66;99169.36;1685600;83;21110;-64
2021/04/26 08:25:22;;;;;;;1.70;1.25;;;;;;;11.51;34.54;99163.31;1685520;83;22178;-66
2021/04/26 08:27:49;;;;;;;1.42;0.90;;;;;;;11.18;35.06;99166.00;1685556;83;21591;-65
2021/04/26 08:30:20;;;;;;;3.08;1.30;;;;;;;10.89;35.58;99166.27;1681493;83;21048;-65
2021/04/26 08:32:47;;;;;;;2.98;1.57;;;;;;;10.58;35.97;99164.70;1691577;83;21166;-64
2021/04/26 08:35:16;;;;;;;1.92;1.37;;;;;;;10.30;35.73;99171.84;1696239;83;21115;-64
2021/04/26 08:37:43;;;;;;;3.95;2.55;;;;;;;10.12;36.21;99171.30;1713916;82;21268;-66
2021/04/26 08:40:11;;;;;;;3.60;2.90;;;;;;;10.09;36.58;99167.62;1717723;83;21134;-63
2021/04/26 08:42:39;;;;;;;2.52;1.80;;;;;;;10.08;36.55;99163.82;1685584;84;21175;-66
2021/04/26 08:45:09;;;;;;;1.60;1.45;;;;;;;9.98;36.59;99165.88;1699973;84;21049;-65
2021/04/26 08:47:38;;;;;;;1.72;1.42;;;;;;;9.87;36.72;99169.25;1656339;85;21165;-64
2021/04/26 08:50:08;;;;;;;2.70;1.37;;;;;;;9.74;37.35;99169.47;1699926;84;21371;-68
2021/04/26 08:52:36;;;;;;;6.42;1.70;;;;;;;9.57;38.55;99175.32;1656320;85;21588;-65
2021/04/26 08:55:05;;;;;;;2.60;1.17;;;;;;;9.44;39.30;99176.36;1656441;85;21617;-64
2021/04/26 08:57:32;;;;;;;7.33;3.20;;;;;;;9.37;39.40;99178.05;1656443;85;21894;-63
2021/04/26 09:00:00;;;;;;;3.27;2.20;;;;;;;9.39;39.15;99173.39;1656436;85;21161;-66
2021/04/26 09:02:27;;;;;;;2.15;1.20;;;;;;;9.51;38.43;99162.75;1656386;85;22605;-63
2021/04/26 09:04:56;;;;;;;1.25;1.12;;;;;;;9.73;37.68;99161.98;1699924;84;21003;-64
2021/04/26 09:07:23;;;;;;;1.05;0.90;;;;;;;9.97;36.12;99162.87;1640284;86;20954;-65
2021/04/26 09:09:53;;;;;;;3.58;1.30;;;;;;;10.12;35.02;99152.69;1633429;86;21239;-63
2021/04/26 09:12:28;;;;;;;1.47;0.90;;;;;;;10.24;34.87;99155.30;1667857;86;21584;-65
2021/04/26 09:14:58;;;;;;;2.00;1.37;;;;;;;10.46;34.62;99157.13;1651288;87;22256;-64
2021/04/26 09:17:40;;;;;;;1.95;1.40;;;;;;;10.69;34.21;99154.44;1651134;86;21451;-63
2021/04/26 09:20:22;;;;;;;3.20;1.30;;;;;;;10.82;33.91;99152.01;1627141;86;21136;-62
2021/04/26 09:23:00;;;;;;;3.02;1.80;;;;;;;10.89;33.90;99150.30;1651001;87;21270;-64
2021/04/26 09:25:39;;;;;;;1.95;1.30;;;;;;;10.97;34.23;99153.39;1651149;86;21204;-62
2021/04/26 09:28:14;;;;;;;1.32;1.12;;;;;;;11.06;33.73;99154.45;1651131;86;21271;-64
2021/04/26 09:30:51;;;;;;;2.12;1.47;;;;;;;11.04;33.28;99146.33;1600687;86;21176;-63
2021/04/26 09:33:33;;;;;;;1.80;1.27;;;;;;;10.97;33.61;99144.91;1707080;83;21580;-63
2021/04/26 09:38:54;;;;;;;2.77;2.33;;;;;;;11.07;33.99;99138.81;1802937;78;22951;-62
2021/04/26 09:41:28;;;;;;;3.80;2.77;;;;;;;11.09;33.43;99140.79;1772516;79;20989;-63
2021/04/26 09:44:09;;;;;;;3.47;2.00;;;;;;;11.13;33.49;99134.61;1792985;79;22150;-62
2021/04/26 09:46:51;;;;;;;2.58;1.50;;;;;;;11.28;33.53;99133.27;1803956;79;20985;-63
2021/04/26 09:49:26;;;;;;;4.70;3.87;;;;;;;11.64;33.05;99131.02;1769419;79;21485;-62
2021/04/26 09:51:59;;;;;;;3.00;1.47;;;;;;;12.07;32.02;99141.30;1736653;80;20918;-61
2021/04/26 09:54:39;;;;;;;2.62;1.25;;;;;;;12.31;30.37;99134.30;1767722;78;20946;-62
2021/04/26 09:57:07;;;;;;;2.27;1.47;;;;;;;12.59;30.23;99134.88;1795486;79;21883;-62
2021/04/26 09:59:36;;;;;;;2.80;2.00;;;;;;;12.96;29.70;99124.72;1761621;79;21000;-63
2021/04/26 10:02:05;;;;;;;5.33;1.70;;;;;;;13.27;29.34;99129.69;1758236;79;21071;-63
2021/04/26 10:04:34;;;;;;;2.12;1.65;;;;;;;13.44;29.37;99117.69;1760260;79;21040;-64
2021/04/26 10:07:03;;;;;;;4.33;1.80;;;;;;;13.26;29.49;99125.38;1785327;79;20882;-63
2021/04/26 10:09:32;;;;;;;3.47;2.33;;;;;;;12.89;29.80;99133.70;1771288;79;21638;-64
2021/04/26 10:12:03;;;;;;;3.20;2.40;;;;;;;12.55;30.31;99134.93;1770704;79;20937;-65
2021/04/26 10:14:33;;;;;;;3.05;2.27;;;;;;;12.28;30.64;99142.67;1758266;79;20929;-66
2021/04/26 10:17:06;;;;;;;4.83;2.05;;;;;;;11.99;31.10;99146.73;1744003;80;21120;-64
2021/04/26 10:19:38;;;;;;;1.52;1.30;;;;;;;11.60;32.55;99158.23;1765100;79;21170;-64
2021/04/26 10:22:07;;;;;;;2.83;1.15;;;;;;;11.22;33.84;99172.11;1788403;79;21334;-61
2021/04/26 10:24:52;;;;;;;1.82;1.15;;;;;;;10.89;35.36;99176.08;1758076;79;21024;-65
2021/04/26 10:27:39;;;;;;;3.02;1.30;;;;;;;10.65;36.35;99177.60;1784877;79;20972;-63
2021/04/26 10:30:10;;;;;;;1.37;0.95;;;;;;;10.36;37.14;99177.80;1771517;79;21016;-65
2021/04/26 10:33:00;;;;;;;2.02;1.30;;;;;;;10.15;37.54;99164.80;1787896;79;21146;-63
2021/04/26 10:35:46;;;;;;;1.85;1.52;;;;;;;9.99;37.69;99164.84;1788406;79;21383;-63
2021/04/26 10:38:47;;;;;;;4.70;1.37;;;;;;;9.96;37.90;99163.37;1750099;79;21013;-62
2021/04/26 10:41:52;;;;;;;1.10;1.02;;;;;;;10.08;38.28;99158.50;1752486;80;21578;-64
2021/04/26 10:44:42;;;;;;;1.50;0.95;;;;;;;10.42;37.17;99151.84;1771954;80;21032;-62
2021/04/26 10:47:29;;;;;;;1.50;1.30;;;;;;;10.88;36.09;99151.80;1777236;80;21151;-64
2021/04/26 10:50:12;;;;;;;2.50;1.37;;;;;;;11.37;34.91;99146.31;1759631;80;21338;-64
2021/04/26 10:52:42;;;;;;;1.95;1.22;;;;;;;11.82;34.41;99141.81;1745666;80;20946;-64
2021/04/26 10:55:23;;;;;;;2.22;1.27;;;;;;;12.22;34.24;99138.11;1745890;80;20933;-62
2021/04/26 10:57:56;;;;;;;1.35;0.93;;;;;;;12.61;33.35;99144.34;1748253;80;21541;-62
2021/04/26 11:00:29;;;;;;;2.12;1.90;;;;;;;13.01;32.62;99140.98;1745892;80;21621;-64
2021/04/26 11:03:11;;;;;;;2.72;1.87;;;;;;;13.29;32.21;99140.20;1745672;80;21133;-63
2021/04/26 11:05:44;;;;;;;8.33;3.92;;;;;;;13.31;33.13;99141.64;1745813;80;20992;-64
2021/04/26 11:11:20;;;;;;;3.22;2.10;;;;;;;12.70;35.75;99135.17;1825913;78;22706;-61
2021/04/26 11:13:55;;;;;;;3.92;2.00;;;;;;;12.60;35.43;99133.34;1814050;79;21557;-65
2021/04/26 11:16:32;;;;;;;2.65;1.65;;;;;;;12.43;35.43;99135.96;1741496;81;22316;-64
2021/04/26 11:19:06;;;;;;;1.90;1.30;;;;;;;12.33;35.31;99136.25;1742229;80;21021;-64
2021/04/26 11:21:50;;;;;;;2.12;1.22;;;;;;;12.33;35.15;99122.92;1775374;80;21001;-62
2021/04/26 11:24:28;;;;;;;2.25;1.20;;;;;;;12.27;36.25;99117.53;1736629;82;21023;-63
2021/04/26 11:27:14;;;;;;;1.40;1.20;;;;;;;12.15;36.59;99116.39;1751270;81;21593;-62
2021/04/26 11:29:49;;;;;;;5.00;1.25;;;;;;;12.16;36.70;99115.36;1753577;81;21196;-64
2021/04/26 11:32:18;;;;;;;3.98;1.25;;;;;;;12.30;36.68;99113.98;1747752;81;21080;-62
2021/04/26 11:34:54;;;;;;;3.15;2.15;;;;;;;12.29;37.15;99111.49;1737597;81;20985;-63
2021/04/26 11:37:24;;;;;;;5.25;2.02;;;;;;;12.45;36.58;99108.58;1743527;81;21088;-61
2021/04/26 11:39:56;;;;;;;4.05;1.90;;;;;;;12.59;36.23;99106.87;1748336;81;20942;-64
2021/04/26 11:42:29;;;;;;;4.30;1.87;;;;;;;12.66;35.74;99098.40;1747189;81;20962;-62
2021/04/26 11:44:58;;;;;;;3.30;2.30;;;;;;;12.70;35.02;99092.98;1749509;81;21151;-63
2021/04/26 11:47:26;;;;;;;4.90;1.92;;;;;;;12.56;34.32;99091.23;1748538;81;21140;-66
2021/04/26 11:50:00;;;;;;;2.08;1.15;;;;;;;12.48;33.93;99094.86;1723925;82;20962;-63
2021/04/26 11:52:29;;;;;;;1.40;1.25;;;;;;;12.54;31.75;99087.41;1734184;82;21195;-65
2021/04/26 11:55:06;;;;;;;3.55;1.80;;;;;;;12.50;31.33;99083.48;1752729;81;21362;-65
2021/04/26 11:57:51;;;;;;;2.55;1.50;;;;;;;12.48;31.45;99074.86;1752729;81;21199;-66
2021/04/26 12:00:28;;;;;;;8.00;4.70;;;;;;;12.45;31.71;99069.89;1722073;81;21557;-65
2021/04/26 12:03:06;;;;;;;2.62;2.00;;;;;;;12.43;31.27;99061.77;1730544;81;21119;-63
2021/04/26 12:05:34;;;;;;;1.37;1.22;;;;;;;12.34;30.78;99056.56;1749870;80;21217;-64
2021/04/26 12:08:02;;;;;;;1.37;1.20;;;;;;;12.21;31.01;99054.28;1760022;80;23609;-62